createdAt,value
2019-01-19T00:02:16.202Z,12.20
2019-01-19T00:07:27.597Z,11.77
2019-01-19T00:12:33.007Z,13.30
2019-01-19T00:17:44.170Z,12.23
2019-01-19T00:22:52.311Z,12.00
2019-01-19T00:27:54.772Z,13.50
2019-01-19T00:33:15.797Z,15.73
2019-01-19T00:38:36.641Z,10.53
2019-01-19T00:43:39.096Z,12.03
2019-01-19T00:48:44.223Z,12.60
2019-01-19T00:53:46.686Z,13.73
2019-01-19T00:58:49.212Z,12.97
2019-01-19T01:04:00.400Z,14.30
2019-01-19T01:09:24.454Z,10.57
2019-01-19T01:14:51.131Z,12.10
2019-01-19T01:19:56.323Z,10.53
2019-01-19T01:25:10.798Z,11.20
2019-01-19T01:30:31.002Z,19.57
2019-01-19T01:36:06.771Z,11.80
2019-01-19T01:41:23.801Z,15.30
2019-01-19T01:46:34.951Z,11.60
2019-01-19T01:51:40.372Z,13.13
2019-01-19T01:56:42.843Z,14.83
2019-01-19T02:02:03.096Z,16.27
2019-01-19T02:07:05.564Z,14.70
2019-01-19T02:12:35.215Z,11.60
2019-01-19T02:17:37.669Z,16.37
2019-01-19T02:23:07.914Z,16.73
2019-01-19T02:28:10.379Z,11.13
2019-01-19T02:33:34.486Z,13.33
2019-01-19T02:38:39.644Z,12.60
2019-01-19T02:43:42.091Z,13.27
2019-01-19T02:49:02.366Z,17.33
2019-01-19T02:54:04.825Z,13.73
2019-01-19T02:59:16.041Z,13.97
2019-01-19T03:04:27.271Z,14.20
2019-01-19T03:09:50.882Z,13.53
2019-01-19T03:14:53.352Z,14.73
2019-01-19T03:19:55.823Z,14.27
2019-01-19T03:25:01.307Z,14.83
2019-01-19T03:30:15.833Z,15.20
2019-01-19T03:35:27.044Z,17.27
2019-01-19T03:40:38.173Z,14.10
2019-01-19T03:45:40.633Z,14.17
2019-01-19T03:50:43.094Z,14.90
2019-01-19T03:56:06.951Z,15.23
2019-01-19T04:01:30.456Z,13.70
2019-01-19T04:07:03.066Z,13.23
2019-01-19T04:12:17.323Z,15.03
2019-01-19T04:17:37.693Z,13.30
2019-01-19T04:22:40.138Z,14.73
2019-01-19T04:27:42.619Z,18.57
2019-01-19T04:32:45.066Z,18.80
2019-01-19T04:37:47.547Z,15.87
2019-01-19T04:42:49.997Z,17.70
2019-01-19T04:47:52.448Z,13.13
2019-01-19T04:52:54.907Z,13.57
2019-01-19T04:57:57.358Z,15.10
2019-01-19T05:02:59.813Z,16.07
2019-01-19T05:08:02.259Z,12.87
2019-01-19T05:13:04.727Z,17.03
2019-01-19T05:18:07.189Z,17.97
2019-01-19T05:23:10.805Z,12.93
2019-01-19T05:28:12.109Z,16.33
2019-01-19T05:33:14.566Z,15.60
2019-01-19T05:38:17.046Z,14.50
2019-01-19T05:43:19.512Z,15.90
2019-01-19T05:48:21.980Z,15.67
2019-01-19T05:53:24.470Z,17.00
2019-01-19T05:58:26.927Z,19.23
2019-01-19T06:03:29.396Z,15.23
2019-01-19T06:08:31.854Z,20.03
2019-01-19T06:13:34.304Z,17.17
2019-01-19T06:18:36.790Z,17.47
2019-01-19T06:23:39.243Z,19.37
2019-01-19T06:28:41.708Z,16.60
2019-01-19T06:33:44.174Z,18.87
2019-01-19T06:38:46.657Z,17.30
2019-01-19T06:43:49.096Z,16.20
2019-01-19T06:48:51.559Z,21.10
2019-01-19T06:54:01.318Z,20.60
2019-01-19T06:58:56.495Z,15.17
2019-01-19T07:03:58.964Z,17.53
2019-01-19T07:09:01.426Z,19.67
2019-01-19T07:14:03.910Z,19.33
2019-01-19T07:19:06.366Z,18.93
2019-01-19T07:24:08.810Z,21.83
2019-01-19T07:29:11.276Z,19.27
2019-01-19T07:34:13.751Z,20.20
2019-01-19T07:39:16.214Z,26.07
2019-01-19T07:44:18.681Z,17.93
2019-01-19T07:49:21.150Z,23.13
2019-01-19T07:54:23.618Z,19.30
2019-01-19T07:59:26.062Z,20.97
2019-01-19T08:04:28.556Z,19.23
2019-01-19T08:09:31.019Z,17.20
2019-01-19T08:14:33.478Z,22.87
2019-01-19T08:19:35.955Z,18.87
2019-01-19T08:24:38.397Z,16.60
2019-01-19T08:29:40.853Z,18.63
2019-01-19T08:34:43.509Z,17.87
2019-01-19T08:39:45.953Z,18.00
2019-01-19T08:44:48.410Z,17.93
2019-01-19T08:49:50.871Z,14.40
2019-01-19T08:54:53.359Z,18.47
2019-01-19T08:59:55.795Z,15.03
2019-01-19T09:04:58.310Z,15.83
2019-01-19T09:10:00.764Z,17.20
2019-01-19T09:15:03.217Z,16.43
2019-01-19T09:20:05.683Z,15.07
2019-01-19T09:25:08.149Z,15.53
2019-01-19T09:30:19.412Z,16.03
2019-01-19T09:35:21.893Z,15.33
2019-01-19T09:40:24.577Z,14.90
2019-01-19T09:45:26.840Z,13.13
2019-01-19T09:50:29.324Z,18.33
2019-01-19T09:55:31.803Z,16.47
2019-01-19T10:00:36.655Z,16.77
2019-01-19T10:05:36.723Z,13.97
2019-01-19T10:10:39.182Z,18.30
2019-01-19T10:15:41.651Z,16.57
2019-01-19T10:20:44.109Z,15.97
2019-01-19T10:25:46.584Z,19.73
2019-01-19T10:30:49.071Z,14.00
2019-01-19T10:35:51.545Z,17.63
2019-01-19T10:40:54.002Z,18.30
2019-01-19T10:45:56.462Z,16.00
2019-01-19T10:50:58.963Z,21.17
2019-01-19T10:56:01.436Z,17.57
2019-01-19T11:01:03.902Z,16.77
2019-01-19T11:06:06.375Z,17.43
2019-01-19T11:11:08.857Z,15.33
2019-01-19T11:16:11.325Z,15.07
2019-01-19T11:21:13.798Z,13.47
2019-01-19T11:26:16.261Z,13.50
2019-01-19T11:31:18.739Z,12.27
2019-01-19T11:36:21.259Z,14.13
2019-01-19T11:41:23.731Z,15.40
2019-01-19T11:46:26.187Z,14.10
2019-01-19T11:51:28.666Z,13.93
2019-01-19T11:56:31.132Z,15.20
2019-01-19T12:01:33.586Z,15.57
2019-01-19T12:06:36.072Z,14.20
2019-01-19T12:11:38.584Z,13.33
2019-01-19T12:16:41.018Z,16.00
2019-01-19T12:21:43.520Z,15.97
2019-01-19T12:26:45.990Z,15.77
2019-01-19T12:31:48.465Z,17.93
2019-01-19T12:36:50.933Z,16.40
2019-01-19T12:41:53.396Z,16.87
2019-01-19T12:46:57.011Z,14.57
2019-01-19T12:51:58.393Z,15.87
2019-01-19T12:57:01.923Z,16.23
2019-01-19T13:02:04.487Z,16.47
2019-01-19T13:07:06.955Z,16.90
2019-01-19T13:12:09.486Z,14.37
2019-01-19T13:17:35.877Z,14.00
2019-01-19T13:22:50.380Z,17.43
2019-01-19T13:28:01.709Z,17.80
2019-01-19T13:33:04.166Z,22.67
2019-01-19T13:38:21.661Z,18.90
2019-01-19T13:43:57.666Z,24.63
2019-01-19T13:49:14.739Z,19.60
2019-01-19T13:54:26.052Z,21.50
2019-01-19T13:59:31.266Z,22.63
2019-01-19T14:04:33.740Z,20.03
2019-01-19T14:09:39.094Z,20.50
2019-01-19T14:14:44.457Z,20.67
2019-01-19T14:20:09.373Z,20.77
2019-01-19T14:25:23.497Z,19.63
2019-01-19T14:30:29.095Z,23.57
2019-01-19T14:35:43.517Z,22.57
2019-01-19T14:41:06.893Z,20.77
2019-01-19T14:46:46.197Z,22.90
2019-01-19T14:52:06.756Z,21.53
2019-01-19T14:57:15.257Z,22.43
2019-01-19T15:02:32.996Z,20.87
2019-01-19T15:07:37.964Z,26.13
2019-01-19T15:12:59.127Z,29.60
2019-01-19T15:18:07.330Z,26.87
2019-01-19T15:23:27.916Z,23.73
2019-01-19T15:28:48.832Z,24.47
2019-01-19T15:34:13.136Z,25.00
2019-01-19T15:39:30.641Z,28.27
2019-01-19T15:44:39.061Z,23.00
2019-01-19T15:50:06.160Z,24.63
2019-01-19T15:55:08.621Z,24.23
2019-01-19T16:00:26.348Z,26.37
2019-01-19T16:05:46.880Z,32.10
2019-01-19T16:11:01.382Z,24.17
2019-01-19T16:16:31.267Z,27.80
2019-01-19T16:21:51.749Z,27.87
2019-01-19T16:27:06.470Z,29.03
2019-01-19T16:32:27.441Z,34.03
2019-01-19T16:37:38.922Z,28.30
2019-01-19T16:43:02.737Z,26.47
2019-01-19T16:48:29.510Z,27.13
2019-01-19T16:53:31.999Z,28.53
2019-01-19T16:58:46.445Z,26.37
2019-01-19T17:03:51.852Z,33.13
2019-01-19T17:09:15.884Z,29.50
2019-01-19T17:14:43.240Z,30.63
2019-01-19T17:19:54.654Z,29.90
2019-01-19T17:25:09.007Z,31.43
2019-01-19T17:30:20.435Z,28.93
2019-01-19T17:35:22.898Z,34.73
2019-01-19T17:40:46.743Z,37.27
2019-01-19T17:46:03.974Z,35.10
2019-01-19T17:51:18.247Z,35.13
2019-01-19T17:56:29.714Z,30.13
2019-01-19T18:01:37.957Z,29.77
2019-01-19T18:07:07.470Z,31.10
2019-01-19T18:12:21.801Z,29.93
2019-01-19T18:17:24.264Z,31.23
2019-01-19T18:22:35.473Z,31.37
2019-01-19T18:27:48.085Z,37.97
2019-01-19T18:33:16.382Z,39.57
2019-01-19T18:38:30.677Z,42.33
2019-01-19T18:43:48.144Z,38.90
2019-01-19T18:49:11.810Z,36.57
2019-01-19T18:54:14.285Z,42.63
2019-01-19T18:59:16.759Z,35.57
2019-01-19T19:04:25.201Z,35.93
2019-01-19T19:09:37.019Z,33.43
2019-01-19T19:15:12.920Z,34.67
2019-01-19T19:20:18.095Z,37.50
2019-01-19T19:25:20.577Z,33.87
2019-01-19T19:30:25.807Z,36.10
2019-01-19T19:35:37.159Z,44.57
2019-01-19T19:40:51.563Z,38.67
2019-01-19T19:45:54.050Z,38.93
2019-01-19T19:51:33.336Z,40.03
2019-01-19T19:56:35.277Z,40.50
2019-01-19T20:01:37.775Z,36.40
2019-01-19T20:06:40.317Z,35.03
2019-01-19T20:11:42.789Z,40.07
2019-01-19T20:16:45.490Z,41.10
2019-01-19T20:21:47.952Z,36.00
2019-01-19T20:26:50.434Z,41.17
2019-01-19T20:31:52.923Z,41.87
2019-01-19T20:36:55.389Z,42.50
2019-01-19T20:41:57.890Z,44.33
2019-01-19T20:47:00.433Z,42.93
2019-01-19T20:52:05.628Z,40.43
2019-01-19T20:57:08.103Z,39.70
2019-01-19T21:02:10.592Z,40.53
2019-01-19T21:07:13.087Z,40.93
2019-01-19T21:12:15.572Z,49.73
2019-01-19T21:17:18.114Z,44.33
2019-01-19T21:22:20.544Z,44.10
2019-01-19T21:27:23.017Z,44.87
2019-01-19T21:32:25.489Z,48.30
2019-01-19T21:37:28.054Z,41.63
2019-01-19T21:42:30.539Z,45.43
2019-01-19T21:47:33.014Z,46.63
2019-01-19T21:52:35.532Z,45.20
2019-01-19T21:57:37.965Z,47.13
2019-01-19T22:02:40.456Z,44.77
2019-01-19T22:07:42.946Z,40.70
2019-01-19T22:12:45.425Z,47.03
2019-01-19T22:17:47.938Z,47.47
2019-01-19T22:22:50.418Z,45.53
2019-01-19T22:27:54.924Z,51.93
2019-01-19T22:32:55.659Z,43.37
2019-01-19T22:37:58.101Z,51.00
2019-01-19T22:43:01.409Z,51.67
2019-01-19T22:48:03.907Z,48.30
2019-01-19T22:53:06.378Z,48.07
2019-01-19T22:58:08.873Z,44.60
2019-01-19T23:03:11.339Z,51.60
2019-01-19T23:08:13.821Z,46.77
2019-01-19T23:13:16.280Z,43.87
2019-01-19T23:18:18.768Z,44.60
2019-01-19T23:23:21.292Z,42.30
2019-01-19T23:28:23.708Z,39.73
2019-01-19T23:33:26.166Z,45.03
2019-01-19T23:38:28.665Z,43.20
2019-01-19T23:43:31.137Z,40.83
2019-01-19T23:48:33.666Z,40.90
2019-01-19T23:53:36.154Z,41.73
2019-01-19T23:58:38.624Z,41.83
